sensor_id;sensor_type;location;lat;lon;timestamp;P1;durP1;ratioP1;P2;durP2;ratioP2
75645;SDS011;64237;52.438;13.240;2023-05-29T00:00:22;9.17;;;2.33;;
75645;SDS011;64237;52.438;13.240;2023-05-29T00:02:47;6.30;;;2.00;;
75645;SDS011;64237;52.438;13.240;2023-05-29T00:05:14;6.95;;;2.25;;
75645;SDS011;64237;52.438;13.240;2023-05-29T00:07:40;10.55;;;2.70;;
75645;SDS011;64237;52.438;13.240;2023-05-29T00:10:07;10.25;;;2.60;;
75645;SDS011;64237;52.438;13.240;2023-05-29T00:12:34;8.68;;;2.45;;
75645;SDS011;64237;52.438;13.240;2023-05-29T00:15:00;6.75;;;2.03;;
75645;SDS011;64237;52.438;13.240;2023-05-29T00:17:25;6.57;;;2.40;;
75645;SDS011;64237;52.438;13.240;2023-05-29T00:19:51;11.57;;;2.58;;
75645;SDS011;64237;52.438;13.240;2023-05-29T00:22:16;8.25;;;2.45;;
75645;SDS011;64237;52.438;13.240;2023-05-29T00:24:42;6.53;;;2.30;;
75645;SDS011;64237;52.438;13.240;2023-05-29T00:27:07;8.27;;;2.58;;
75645;SDS011;64237;52.438;13.240;2023-05-29T00:29:33;7.90;;;2.45;;
75645;SDS011;64237;52.438;13.240;2023-05-29T00:31:59;7.85;;;2.20;;
75645;SDS011;64237;52.438;13.240;2023-05-29T00:34:24;7.97;;;2.47;;
75645;SDS011;64237;52.438;13.240;2023-05-29T00:36:51;7.75;;;2.33;;
75645;SDS011;64237;52.438;13.240;2023-05-29T00:39:17;7.40;;;2.40;;
75645;SDS011;64237;52.438;13.240;2023-05-29T00:41:42;6.85;;;2.60;;
75645;SDS011;64237;52.438;13.240;2023-05-29T00:44:08;7.15;;;2.38;;
75645;SDS011;64237;52.438;13.240;2023-05-29T00:46:34;10.07;;;2.50;;
75645;SDS011;64237;52.438;13.240;2023-05-29T00:48:59;8.82;;;2.50;;
75645;SDS011;64237;52.438;13.240;2023-05-29T00:51:26;11.48;;;2.80;;
75645;SDS011;64237;52.438;13.240;2023-05-29T00:53:53;9.80;;;2.65;;
75645;SDS011;64237;52.438;13.240;2023-05-29T00:56:20;9.50;;;2.33;;
75645;SDS011;64237;52.438;13.240;2023-05-29T00:58:48;12.27;;;2.78;;
75645;SDS011;64237;52.438;13.240;2023-05-29T01:01:15;12.45;;;2.80;;
75645;SDS011;64237;52.438;13.240;2023-05-29T01:03:42;8.00;;;2.40;;
75645;SDS011;64237;52.438;13.240;2023-05-29T01:06:08;6.68;;;2.22;;
75645;SDS011;64237;52.438;13.240;2023-05-29T01:08:35;7.70;;;2.33;;
75645;SDS011;64237;52.438;13.240;2023-05-29T01:11:03;7.20;;;2.40;;
75645;SDS011;64237;52.438;13.240;2023-05-29T01:13:38;7.03;;;2.30;;
75645;SDS011;64237;52.438;13.240;2023-05-29T01:16:51;6.40;;;2.13;;
75645;SDS011;64237;52.438;13.240;2023-05-29T01:22:12;10.25;;;2.33;;
75645;SDS011;64237;52.438;13.240;2023-05-29T01:24:48;7.00;;;2.70;;
75645;SDS011;64237;52.438;13.240;2023-05-29T01:27:17;8.02;;;2.17;;
75645;SDS011;64237;52.438;13.240;2023-05-29T01:29:44;9.50;;;2.53;;
75645;SDS011;64237;52.438;13.240;2023-05-29T01:32:12;8.65;;;2.17;;
75645;SDS011;64237;52.438;13.240;2023-05-29T01:34:37;6.63;;;2.20;;
75645;SDS011;64237;52.438;13.240;2023-05-29T01:37:02;7.10;;;2.25;;
75645;SDS011;64237;52.438;13.240;2023-05-29T01:39:28;8.10;;;2.60;;
75645;SDS011;64237;52.438;13.240;2023-05-29T01:41:54;7.13;;;2.53;;
75645;SDS011;64237;52.438;13.240;2023-05-29T01:44:20;7.65;;;2.35;;
75645;SDS011;64237;52.438;13.240;2023-05-29T01:46:47;5.75;;;2.10;;
75645;SDS011;64237;52.438;13.240;2023-05-29T01:49:14;5.88;;;2.25;;
75645;SDS011;64237;52.438;13.240;2023-05-29T01:51:40;7.63;;;2.42;;
75645;SDS011;64237;52.438;13.240;2023-05-29T01:54:06;5.68;;;2.13;;
75645;SDS011;64237;52.438;13.240;2023-05-29T01:56:32;7.43;;;2.35;;
75645;SDS011;64237;52.438;13.240;2023-05-29T01:58:58;10.15;;;3.22;;
75645;SDS011;64237;52.438;13.240;2023-05-29T02:01:25;7.45;;;2.28;;
75645;SDS011;64237;52.438;13.240;2023-05-29T02:03:51;9.98;;;2.85;;
75645;SDS011;64237;52.438;13.240;2023-05-29T02:06:17;8.50;;;2.75;;
75645;SDS011;64237;52.438;13.240;2023-05-29T02:08:42;6.00;;;1.92;;
75645;SDS011;64237;52.438;13.240;2023-05-29T02:11:07;5.45;;;2.20;;
75645;SDS011;64237;52.438;13.240;2023-05-29T02:13:33;6.97;;;2.10;;
75645;SDS011;64237;52.438;13.240;2023-05-29T02:15:59;9.25;;;2.80;;
75645;SDS011;64237;52.438;13.240;2023-05-29T02:18:24;8.93;;;2.57;;
75645;SDS011;64237;52.438;13.240;2023-05-29T02:20:50;6.07;;;2.55;;
75645;SDS011;64237;52.438;13.240;2023-05-29T02:23:16;8.38;;;2.53;;
75645;SDS011;64237;52.438;13.240;2023-05-29T02:25:41;7.97;;;2.47;;
75645;SDS011;64237;52.438;13.240;2023-05-29T02:28:07;6.97;;;2.65;;
75645;SDS011;64237;52.438;13.240;2023-05-29T02:30:33;9.23;;;2.65;;
75645;SDS011;64237;52.438;13.240;2023-05-29T02:32:59;8.20;;;2.45;;
75645;SDS011;64237;52.438;13.240;2023-05-29T02:35:24;6.93;;;2.17;;
75645;SDS011;64237;52.438;13.240;2023-05-29T02:37:50;6.72;;;2.58;;
75645;SDS011;64237;52.438;13.240;2023-05-29T02:40:16;6.28;;;2.15;;
75645;SDS011;64237;52.438;13.240;2023-05-29T02:42:42;6.80;;;2.60;;
75645;SDS011;64237;52.438;13.240;2023-05-29T02:45:07;8.63;;;2.50;;
75645;SDS011;64237;52.438;13.240;2023-05-29T02:47:33;9.82;;;2.97;;
75645;SDS011;64237;52.438;13.240;2023-05-29T02:49:58;7.75;;;2.65;;
75645;SDS011;64237;52.438;13.240;2023-05-29T02:52:24;9.10;;;2.73;;
75645;SDS011;64237;52.438;13.240;2023-05-29T02:54:49;9.20;;;2.53;;
75645;SDS011;64237;52.438;13.240;2023-05-29T02:57:14;8.70;;;2.97;;
75645;SDS011;64237;52.438;13.240;2023-05-29T02:59:40;6.10;;;2.50;;
75645;SDS011;64237;52.438;13.240;2023-05-29T03:02:06;7.95;;;2.63;;
75645;SDS011;64237;52.438;13.240;2023-05-29T03:04:31;11.02;;;2.70;;
75645;SDS011;64237;52.438;13.240;2023-05-29T03:06:56;9.93;;;2.63;;
75645;SDS011;64237;52.438;13.240;2023-05-29T03:09:22;9.00;;;2.83;;
75645;SDS011;64237;52.438;13.240;2023-05-29T03:11:48;7.63;;;2.40;;
75645;SDS011;64237;52.438;13.240;2023-05-29T03:14:14;8.10;;;2.60;;
75645;SDS011;64237;52.438;13.240;2023-05-29T03:16:40;7.40;;;2.33;;
75645;SDS011;64237;52.438;13.240;2023-05-29T03:19:05;9.30;;;2.22;;
75645;SDS011;64237;52.438;13.240;2023-05-29T03:21:32;10.65;;;2.63;;
75645;SDS011;64237;52.438;13.240;2023-05-29T03:23:58;7.35;;;2.60;;
75645;SDS011;64237;52.438;13.240;2023-05-29T03:26:23;9.07;;;2.78;;
75645;SDS011;64237;52.438;13.240;2023-05-29T03:28:48;9.60;;;2.80;;
75645;SDS011;64237;52.438;13.240;2023-05-29T03:31:14;10.90;;;2.60;;
75645;SDS011;64237;52.438;13.240;2023-05-29T03:33:39;9.37;;;2.80;;
75645;SDS011;64237;52.438;13.240;2023-05-29T03:36:04;7.07;;;2.30;;
75645;SDS011;64237;52.438;13.240;2023-05-29T03:38:30;11.55;;;3.03;;
75645;SDS011;64237;52.438;13.240;2023-05-29T03:40:55;6.32;;;2.38;;
75645;SDS011;64237;52.438;13.240;2023-05-29T03:43:21;12.13;;;3.20;;
75645;SDS011;64237;52.438;13.240;2023-05-29T03:45:46;9.23;;;2.60;;
75645;SDS011;64237;52.438;13.240;2023-05-29T03:48:11;8.00;;;2.58;;
75645;SDS011;64237;52.438;13.240;2023-05-29T03:50:36;9.97;;;2.93;;
75645;SDS011;64237;52.438;13.240;2023-05-29T03:53:02;9.73;;;2.45;;
75645;SDS011;64237;52.438;13.240;2023-05-29T03:55:27;7.30;;;2.50;;
75645;SDS011;64237;52.438;13.240;2023-05-29T03:57:53;7.30;;;2.80;;
75645;SDS011;64237;52.438;13.240;2023-05-29T04:00:18;7.60;;;2.70;;
75645;SDS011;64237;52.438;13.240;2023-05-29T04:02:44;11.80;;;2.60;;
75645;SDS011;64237;52.438;13.240;2023-05-29T04:05:09;9.73;;;2.63;;
75645;SDS011;64237;52.438;13.240;2023-05-29T04:07:35;11.80;;;2.90;;
75645;SDS011;64237;52.438;13.240;2023-05-29T04:12:30;9.98;;;2.78;;
75645;SDS011;64237;52.438;13.240;2023-05-29T04:14:56;8.13;;;2.50;;
75645;SDS011;64237;52.438;13.240;2023-05-29T04:17:22;11.25;;;2.80;;
75645;SDS011;64237;52.438;13.240;2023-05-29T04:19:47;12.48;;;2.80;;
75645;SDS011;64237;52.438;13.240;2023-05-29T04:22:13;8.55;;;2.90;;
75645;SDS011;64237;52.438;13.240;2023-05-29T04:24:38;8.90;;;2.60;;
75645;SDS011;64237;52.438;13.240;2023-05-29T04:27:04;8.30;;;2.53;;
75645;SDS011;64237;52.438;13.240;2023-05-29T04:29:30;8.18;;;2.13;;
75645;SDS011;64237;52.438;13.240;2023-05-29T04:31:55;7.28;;;2.60;;
75645;SDS011;64237;52.438;13.240;2023-05-29T04:34:21;9.93;;;2.80;;
75645;SDS011;64237;52.438;13.240;2023-05-29T04:36:47;5.32;;;2.00;;
75645;SDS011;64237;52.438;13.240;2023-05-29T04:39:13;8.25;;;2.45;;
75645;SDS011;64237;52.438;13.240;2023-05-29T04:41:39;6.45;;;2.30;;
75645;SDS011;64237;52.438;13.240;2023-05-29T04:44:05;8.27;;;2.40;;
75645;SDS011;64237;52.438;13.240;2023-05-29T04:46:31;7.28;;;2.28;;
75645;SDS011;64237;52.438;13.240;2023-05-29T04:48:56;9.35;;;2.92;;
75645;SDS011;64237;52.438;13.240;2023-05-29T04:51:22;7.95;;;2.20;;
75645;SDS011;64237;52.438;13.240;2023-05-29T04:53:48;7.57;;;2.55;;
75645;SDS011;64237;52.438;13.240;2023-05-29T04:56:16;6.60;;;2.67;;
75645;SDS011;64237;52.438;13.240;2023-05-29T04:58:43;6.00;;;2.38;;
75645;SDS011;64237;52.438;13.240;2023-05-29T05:01:08;7.82;;;2.72;;
75645;SDS011;64237;52.438;13.240;2023-05-29T05:03:34;5.97;;;2.20;;
75645;SDS011;64237;52.438;13.240;2023-05-29T05:06:01;6.03;;;2.17;;
75645;SDS011;64237;52.438;13.240;2023-05-29T05:08:31;8.02;;;2.40;;
75645;SDS011;64237;52.438;13.240;2023-05-29T05:10:57;7.13;;;2.85;;
75645;SDS011;64237;52.438;13.240;2023-05-29T05:13:24;8.98;;;2.65;;
75645;SDS011;64237;52.438;13.240;2023-05-29T05:15:50;8.45;;;2.67;;
75645;SDS011;64237;52.438;13.240;2023-05-29T05:18:15;8.27;;;2.97;;
75645;SDS011;64237;52.438;13.240;2023-05-29T05:20:41;7.18;;;2.53;;
75645;SDS011;64237;52.438;13.240;2023-05-29T05:23:06;7.28;;;2.33;;
75645;SDS011;64237;52.438;13.240;2023-05-29T05:25:32;7.70;;;2.30;;
75645;SDS011;64237;52.438;13.240;2023-05-29T05:27:59;7.88;;;2.55;;
75645;SDS011;64237;52.438;13.240;2023-05-29T05:30:25;8.40;;;2.63;;
75645;SDS011;64237;52.438;13.240;2023-05-29T05:32:50;8.32;;;2.30;;
75645;SDS011;64237;52.438;13.240;2023-05-29T05:35:16;6.35;;;2.22;;
75645;SDS011;64237;52.438;13.240;2023-05-29T05:37:41;5.75;;;2.30;;
75645;SDS011;64237;52.438;13.240;2023-05-29T05:40:07;7.35;;;2.00;;
75645;SDS011;64237;52.438;13.240;2023-05-29T05:42:33;6.25;;;2.42;;
75645;SDS011;64237;52.438;13.240;2023-05-29T05:44:59;8.48;;;2.80;;
75645;SDS011;64237;52.438;13.240;2023-05-29T05:47:24;8.45;;;2.33;;
75645;SDS011;64237;52.438;13.240;2023-05-29T05:49:50;7.93;;;1.90;;
75645;SDS011;64237;52.438;13.240;2023-05-29T05:52:16;6.07;;;1.90;;
75645;SDS011;64237;52.438;13.240;2023-05-29T05:54:42;4.68;;;1.98;;
75645;SDS011;64237;52.438;13.240;2023-05-29T05:57:09;5.18;;;1.92;;
75645;SDS011;64237;52.438;13.240;2023-05-29T05:59:35;5.38;;;2.20;;
75645;SDS011;64237;52.438;13.240;2023-05-29T06:02:00;6.30;;;2.00;;
75645;SDS011;64237;52.438;13.240;2023-05-29T06:04:26;6.78;;;2.08;;
75645;SDS011;64237;52.438;13.240;2023-05-29T06:06:52;4.85;;;2.15;;
75645;SDS011;64237;52.438;13.240;2023-05-29T06:09:17;5.37;;;1.70;;
75645;SDS011;64237;52.438;13.240;2023-05-29T06:11:42;5.60;;;1.60;;
75645;SDS011;64237;52.438;13.240;2023-05-29T06:14:08;4.70;;;1.67;;
75645;SDS011;64237;52.438;13.240;2023-05-29T06:16:33;4.32;;;1.67;;
75645;SDS011;64237;52.438;13.240;2023-05-29T06:18:59;5.22;;;1.73;;
75645;SDS011;64237;52.438;13.240;2023-05-29T06:21:25;4.68;;;1.73;;
75645;SDS011;64237;52.438;13.240;2023-05-29T06:23:51;6.95;;;2.00;;
75645;SDS011;64237;52.438;13.240;2023-05-29T06:26:16;5.60;;;1.70;;
75645;SDS011;64237;52.438;13.240;2023-05-29T06:28:41;5.30;;;1.80;;
75645;SDS011;64237;52.438;13.240;2023-05-29T06:31:07;4.50;;;1.60;;
75645;SDS011;64237;52.438;13.240;2023-05-29T06:33:32;5.03;;;1.70;;
75645;SDS011;64237;52.438;13.240;2023-05-29T06:35:57;5.80;;;1.47;;
75645;SDS011;64237;52.438;13.240;2023-05-29T06:38:23;3.73;;;1.57;;
75645;SDS011;64237;52.438;13.240;2023-05-29T06:40:48;4.45;;;1.60;;
75645;SDS011;64237;52.438;13.240;2023-05-29T06:43:13;3.87;;;1.50;;
75645;SDS011;64237;52.438;13.240;2023-05-29T06:45:39;4.22;;;1.40;;
75645;SDS011;64237;52.438;13.240;2023-05-29T06:48:05;3.40;;;1.45;;
75645;SDS011;64237;52.438;13.240;2023-05-29T06:50:31;4.55;;;1.50;;
75645;SDS011;64237;52.438;13.240;2023-05-29T06:52:57;2.55;;;1.30;;
75645;SDS011;64237;52.438;13.240;2023-05-29T06:55:22;3.57;;;1.20;;
75645;SDS011;64237;52.438;13.240;2023-05-29T06:57:47;4.27;;;1.47;;
75645;SDS011;64237;52.438;13.240;2023-05-29T07:00:13;4.78;;;1.48;;
75645;SDS011;64237;52.438;13.240;2023-05-29T07:02:39;3.75;;;1.48;;
75645;SDS011;64237;52.438;13.240;2023-05-29T07:05:04;4.80;;;1.52;;
75645;SDS011;64237;52.438;13.240;2023-05-29T07:07:30;3.60;;;1.58;;
75645;SDS011;64237;52.438;13.240;2023-05-29T07:09:56;5.10;;;1.40;;
75645;SDS011;64237;52.438;13.240;2023-05-29T07:12:22;2.90;;;1.20;;
75645;SDS011;64237;52.438;13.240;2023-05-29T07:14:48;3.35;;;1.20;;
75645;SDS011;64237;52.438;13.240;2023-05-29T07:17:13;3.10;;;1.15;;
75645;SDS011;64237;52.438;13.240;2023-05-29T07:19:40;3.88;;;1.20;;
75645;SDS011;64237;52.438;13.240;2023-05-29T07:22:05;2.42;;;1.20;;
75645;SDS011;64237;52.438;13.240;2023-05-29T07:24:30;3.10;;;1.20;;
75645;SDS011;64237;52.438;13.240;2023-05-29T07:26:56;5.55;;;1.65;;
75645;SDS011;64237;52.438;13.240;2023-05-29T07:29:22;2.92;;;1.23;;
75645;SDS011;64237;52.438;13.240;2023-05-29T07:31:48;4.28;;;1.50;;
75645;SDS011;64237;52.438;13.240;2023-05-29T07:34:14;2.95;;;1.38;;
75645;SDS011;64237;52.438;13.240;2023-05-29T07:36:56;4.45;;;1.30;;
75645;SDS011;64237;52.438;13.240;2023-05-29T07:39:23;2.70;;;1.08;;
75645;SDS011;64237;52.438;13.240;2023-05-29T07:41:49;2.80;;;1.23;;
75645;SDS011;64237;52.438;13.240;2023-05-29T07:44:14;3.70;;;1.42;;
75645;SDS011;64237;52.438;13.240;2023-05-29T07:46:40;1.90;;;1.10;;
75645;SDS011;64237;52.438;13.240;2023-05-29T07:49:05;2.87;;;1.40;;
75645;SDS011;64237;52.438;13.240;2023-05-29T07:51:30;3.97;;;1.37;;
75645;SDS011;64237;52.438;13.240;2023-05-29T07:53:56;5.33;;;1.57;;
75645;SDS011;64237;52.438;13.240;2023-05-29T07:56:21;2.47;;;1.50;;
75645;SDS011;64237;52.438;13.240;2023-05-29T07:58:46;4.93;;;1.65;;
75645;SDS011;64237;52.438;13.240;2023-05-29T08:01:12;5.13;;;2.00;;
75645;SDS011;64237;52.438;13.240;2023-05-29T08:03:37;4.00;;;1.42;;
75645;SDS011;64237;52.438;13.240;2023-05-29T08:06:03;5.30;;;1.83;;
75645;SDS011;64237;52.438;13.240;2023-05-29T08:08:28;4.22;;;1.25;;
75645;SDS011;64237;52.438;13.240;2023-05-29T08:10:53;3.70;;;1.23;;
75645;SDS011;64237;52.438;13.240;2023-05-29T08:13:19;2.50;;;1.20;;
75645;SDS011;64237;52.438;13.240;2023-05-29T08:15:44;4.90;;;1.57;;
75645;SDS011;64237;52.438;13.240;2023-05-29T08:18:10;5.25;;;1.50;;
75645;SDS011;64237;52.438;13.240;2023-05-29T08:20:35;3.20;;;1.40;;
75645;SDS011;64237;52.438;13.240;2023-05-29T08:23:01;5.50;;;1.60;;
75645;SDS011;64237;52.438;13.240;2023-05-29T08:25:26;4.43;;;1.70;;
75645;SDS011;64237;52.438;13.240;2023-05-29T08:27:51;4.13;;;1.60;;
75645;SDS011;64237;52.438;13.240;2023-05-29T08:30:17;3.33;;;1.30;;
75645;SDS011;64237;52.438;13.240;2023-05-29T08:32:42;3.55;;;1.40;;
75645;SDS011;64237;52.438;13.240;2023-05-29T08:35:08;3.90;;;1.60;;
75645;SDS011;64237;52.438;13.240;2023-05-29T08:37:33;4.97;;;1.70;;
75645;SDS011;64237;52.438;13.240;2023-05-29T08:39:58;4.53;;;1.53;;
75645;SDS011;64237;52.438;13.240;2023-05-29T08:42:29;4.53;;;1.80;;
75645;SDS011;64237;52.438;13.240;2023-05-29T08:44:58;5.07;;;1.45;;
75645;SDS011;64237;52.438;13.240;2023-05-29T08:47:28;3.10;;;1.50;;
75645;SDS011;64237;52.438;13.240;2023-05-29T08:49:57;4.50;;;1.48;;
75645;SDS011;64237;52.438;13.240;2023-05-29T08:52:25;5.57;;;1.55;;
75645;SDS011;64237;52.438;13.240;2023-05-29T08:54:52;7.53;;;1.70;;
75645;SDS011;64237;52.438;13.240;2023-05-29T08:57:18;4.75;;;1.50;;
75645;SDS011;64237;52.438;13.240;2023-05-29T08:59:45;6.40;;;1.50;;
75645;SDS011;64237;52.438;13.240;2023-05-29T09:04:42;4.70;;;1.60;;
75645;SDS011;64237;52.438;13.240;2023-05-29T09:07:14;4.63;;;1.85;;
75645;SDS011;64237;52.438;13.240;2023-05-29T09:09:40;3.47;;;1.60;;
75645;SDS011;64237;52.438;13.240;2023-05-29T09:12:06;4.22;;;1.50;;
75645;SDS011;64237;52.438;13.240;2023-05-29T09:14:33;3.80;;;1.63;;
75645;SDS011;64237;52.438;13.240;2023-05-29T09:17:03;5.70;;;1.75;;
75645;SDS011;64237;52.438;13.240;2023-05-29T09:19:29;4.07;;;2.15;;
75645;SDS011;64237;52.438;13.240;2023-05-29T09:22:05;6.10;;;1.98;;
75645;SDS011;64237;52.438;13.240;2023-05-29T09:24:33;4.93;;;1.70;;
75645;SDS011;64237;52.438;13.240;2023-05-29T09:26:59;3.92;;;1.55;;
75645;SDS011;64237;52.438;13.240;2023-05-29T09:29:27;5.20;;;1.75;;
75645;SDS011;64237;52.438;13.240;2023-05-29T09:31:55;6.13;;;1.75;;
75645;SDS011;64237;52.438;13.240;2023-05-29T09:34:22;4.55;;;1.67;;
75645;SDS011;64237;52.438;13.240;2023-05-29T09:36:49;5.60;;;1.90;;
75645;SDS011;64237;52.438;13.240;2023-05-29T09:39:15;5.65;;;1.55;;
75645;SDS011;64237;52.438;13.240;2023-05-29T09:41:44;4.93;;;2.00;;
75645;SDS011;64237;52.438;13.240;2023-05-29T09:44:14;5.68;;;2.20;;
75645;SDS011;64237;52.438;13.240;2023-05-29T09:46:41;5.55;;;1.80;;
75645;SDS011;64237;52.438;13.240;2023-05-29T09:49:13;4.68;;;1.85;;
75645;SDS011;64237;52.438;13.240;2023-05-29T09:51:39;5.90;;;1.80;;
75645;SDS011;64237;52.438;13.240;2023-05-29T09:56:41;4.97;;;1.73;;
75645;SDS011;64237;52.438;13.240;2023-05-29T09:59:09;4.78;;;2.03;;
75645;SDS011;64237;52.438;13.240;2023-05-29T10:01:36;6.63;;;1.80;;
75645;SDS011;64237;52.438;13.240;2023-05-29T10:04:05;4.35;;;1.80;;
75645;SDS011;64237;52.438;13.240;2023-05-29T10:06:30;4.93;;;1.87;;
75645;SDS011;64237;52.438;13.240;2023-05-29T10:08:57;5.05;;;1.85;;
75645;SDS011;64237;52.438;13.240;2023-05-29T10:11:25;4.03;;;1.90;;
75645;SDS011;64237;52.438;13.240;2023-05-29T10:13:52;6.25;;;2.25;;
75645;SDS011;64237;52.438;13.240;2023-05-29T10:16:20;5.18;;;1.77;;
75645;SDS011;64237;52.438;13.240;2023-05-29T10:18:55;5.70;;;1.83;;
75645;SDS011;64237;52.438;13.240;2023-05-29T10:21:22;5.47;;;2.00;;
75645;SDS011;64237;52.438;13.240;2023-05-29T10:23:51;7.20;;;2.25;;
75645;SDS011;64237;52.438;13.240;2023-05-29T10:26:24;6.75;;;2.08;;
75645;SDS011;64237;52.438;13.240;2023-05-29T10:32:18;5.20;;;2.10;;
75645;SDS011;64237;52.438;13.240;2023-05-29T10:35:06;7.15;;;1.75;;
75645;SDS011;64237;52.438;13.240;2023-05-29T10:37:52;6.57;;;2.00;;
75645;SDS011;64237;52.438;13.240;2023-05-29T10:40:26;6.35;;;1.95;;
75645;SDS011;64237;52.438;13.240;2023-05-29T10:42:52;5.75;;;1.90;;
75645;SDS011;64237;52.438;13.240;2023-05-29T10:47:54;5.13;;;1.60;;
75645;SDS011;64237;52.438;13.240;2023-05-29T10:53:24;5.43;;;1.88;;
75645;SDS011;64237;52.438;13.240;2023-05-29T10:55:51;6.10;;;1.88;;
75645;SDS011;64237;52.438;13.240;2023-05-29T10:58:18;5.43;;;1.90;;
75645;SDS011;64237;52.438;13.240;2023-05-29T11:00:44;6.05;;;1.90;;
75645;SDS011;64237;52.438;13.240;2023-05-29T11:03:11;3.63;;;1.40;;
75645;SDS011;64237;52.438;13.240;2023-05-29T11:05:56;4.90;;;1.73;;
75645;SDS011;64237;52.438;13.240;2023-05-29T11:08:34;4.05;;;1.80;;
75645;SDS011;64237;52.438;13.240;2023-05-29T11:11:06;5.05;;;1.95;;
75645;SDS011;64237;52.438;13.240;2023-05-29T11:16:05;3.70;;;1.63;;
75645;SDS011;64237;52.438;13.240;2023-05-29T11:18:44;4.68;;;1.88;;
75645;SDS011;64237;52.438;13.240;2023-05-29T11:24:03;4.38;;;1.70;;
75645;SDS011;64237;52.438;13.240;2023-05-29T11:26:32;4.95;;;1.90;;
75645;SDS011;64237;52.438;13.240;2023-05-29T11:29:02;7.65;;;1.67;;
75645;SDS011;64237;52.438;13.240;2023-05-29T11:31:29;4.90;;;1.77;;
75645;SDS011;64237;52.438;13.240;2023-05-29T11:33:58;5.57;;;1.70;;
75645;SDS011;64237;52.438;13.240;2023-05-29T11:36:25;7.40;;;2.00;;
75645;SDS011;64237;52.438;13.240;2023-05-29T11:38:52;4.50;;;1.73;;
75645;SDS011;64237;52.438;13.240;2023-05-29T11:41:18;10.07;;;2.00;;
75645;SDS011;64237;52.438;13.240;2023-05-29T11:43:43;4.35;;;1.90;;
75645;SDS011;64237;52.438;13.240;2023-05-29T11:46:17;4.32;;;1.60;;
75645;SDS011;64237;52.438;13.240;2023-05-29T11:48:46;4.60;;;1.75;;
75645;SDS011;64237;52.438;13.240;2023-05-29T11:51:12;6.00;;;1.95;;
75645;SDS011;64237;52.438;13.240;2023-05-29T11:53:42;5.25;;;1.88;;
75645;SDS011;64237;52.438;13.240;2023-05-29T11:56:11;4.55;;;1.67;;
75645;SDS011;64237;52.438;13.240;2023-05-29T11:58:40;5.00;;;1.95;;
75645;SDS011;64237;52.438;13.240;2023-05-29T12:01:07;4.07;;;1.80;;
75645;SDS011;64237;52.438;13.240;2023-05-29T12:03:51;6.95;;;1.80;;
75645;SDS011;64237;52.438;13.240;2023-05-29T12:06:33;5.40;;;1.73;;
75645;SDS011;64237;52.438;13.240;2023-05-29T12:09:00;4.57;;;1.92;;
75645;SDS011;64237;52.438;13.240;2023-05-29T12:11:27;4.50;;;1.83;;
75645;SDS011;64237;52.438;13.240;2023-05-29T12:13:59;5.07;;;2.10;;
75645;SDS011;64237;52.438;13.240;2023-05-29T12:16:29;5.80;;;1.73;;
75645;SDS011;64237;52.438;13.240;2023-05-29T12:18:57;4.45;;;1.80;;
75645;SDS011;64237;52.438;13.240;2023-05-29T12:21:23;5.05;;;1.60;;
75645;SDS011;64237;52.438;13.240;2023-05-29T12:23:51;5.38;;;2.05;;
75645;SDS011;64237;52.438;13.240;2023-05-29T12:26:18;4.60;;;1.77;;
75645;SDS011;64237;52.438;13.240;2023-05-29T12:28:45;6.53;;;1.60;;
75645;SDS011;64237;52.438;13.240;2023-05-29T12:31:11;5.15;;;1.73;;
75645;SDS011;64237;52.438;13.240;2023-05-29T12:33:38;4.45;;;1.80;;
75645;SDS011;64237;52.438;13.240;2023-05-29T12:36:08;3.70;;;1.60;;
75645;SDS011;64237;52.438;13.240;2023-05-29T12:38:48;4.95;;;1.50;;
75645;SDS011;64237;52.438;13.240;2023-05-29T12:41:22;5.32;;;1.90;;
75645;SDS011;64237;52.438;13.240;2023-05-29T12:43:52;4.93;;;2.00;;
75645;SDS011;64237;52.438;13.240;2023-05-29T12:46:20;4.57;;;1.60;;
75645;SDS011;64237;52.438;13.240;2023-05-29T12:48:45;3.30;;;1.67;;
75645;SDS011;64237;52.438;13.240;2023-05-29T12:51:10;4.30;;;1.70;;
75645;SDS011;64237;52.438;13.240;2023-05-29T12:53:36;6.18;;;1.63;;
75645;SDS011;64237;52.438;13.240;2023-05-29T12:56:02;6.35;;;1.90;;
75645;SDS011;64237;52.438;13.240;2023-05-29T12:58:27;3.25;;;1.60;;
75645;SDS011;64237;52.438;13.240;2023-05-29T13:00:52;5.07;;;1.98;;
75645;SDS011;64237;52.438;13.240;2023-05-29T13:03:21;6.10;;;2.08;;
75645;SDS011;64237;52.438;13.240;2023-05-29T13:05:50;7.25;;;2.10;;
75645;SDS011;64237;52.438;13.240;2023-05-29T13:08:17;6.05;;;1.90;;
75645;SDS011;64237;52.438;13.240;2023-05-29T13:10:44;4.07;;;1.80;;
75645;SDS011;64237;52.438;13.240;2023-05-29T13:13:10;6.22;;;1.80;;
75645;SDS011;64237;52.438;13.240;2023-05-29T13:15:37;5.95;;;1.90;;
75645;SDS011;64237;52.438;13.240;2023-05-29T13:18:03;6.50;;;1.83;;
75645;SDS011;64237;52.438;13.240;2023-05-29T13:20:28;5.57;;;1.80;;
75645;SDS011;64237;52.438;13.240;2023-05-29T13:22:54;5.45;;;1.90;;
75645;SDS011;64237;52.438;13.240;2023-05-29T13:25:20;4.45;;;1.92;;
75645;SDS011;64237;52.438;13.240;2023-05-29T13:27:47;7.38;;;1.75;;
75645;SDS011;64237;52.438;13.240;2023-05-29T13:30:13;4.97;;;1.77;;
75645;SDS011;64237;52.438;13.240;2023-05-29T13:32:40;4.07;;;1.60;;
75645;SDS011;64237;52.438;13.240;2023-05-29T13:35:06;4.80;;;1.55;;
75645;SDS011;64237;52.438;13.240;2023-05-29T13:37:31;5.07;;;2.08;;
75645;SDS011;64237;52.438;13.240;2023-05-29T13:39:57;5.95;;;1.70;;
75645;SDS011;64237;52.438;13.240;2023-05-29T13:42:22;6.88;;;1.58;;
75645;SDS011;64237;52.438;13.240;2023-05-29T13:44:48;4.50;;;1.70;;
75645;SDS011;64237;52.438;13.240;2023-05-29T13:47:15;6.60;;;2.38;;
75645;SDS011;64237;52.438;13.240;2023-05-29T13:49:40;6.70;;;2.33;;
75645;SDS011;64237;52.438;13.240;2023-05-29T13:52:06;5.68;;;1.58;;
75645;SDS011;64237;52.438;13.240;2023-05-29T13:54:32;6.10;;;1.95;;
75645;SDS011;64237;52.438;13.240;2023-05-29T13:57:01;7.43;;;1.60;;
75645;SDS011;64237;52.438;13.240;2023-05-29T13:59:28;5.45;;;1.80;;
75645;SDS011;64237;52.438;13.240;2023-05-29T14:01:54;6.57;;;1.88;;
75645;SDS011;64237;52.438;13.240;2023-05-29T14:04:19;5.93;;;1.60;;
75645;SDS011;64237;52.438;13.240;2023-05-29T14:06:44;5.17;;;1.50;;
75645;SDS011;64237;52.438;13.240;2023-05-29T14:09:10;5.80;;;1.73;;
75645;SDS011;64237;52.438;13.240;2023-05-29T14:11:36;4.60;;;1.58;;
75645;SDS011;64237;52.438;13.240;2023-05-29T14:14:02;5.63;;;1.80;;
75645;SDS011;64237;52.438;13.240;2023-05-29T14:16:31;5.53;;;1.60;;
75645;SDS011;64237;52.438;13.240;2023-05-29T14:18:57;7.68;;;2.33;;
75645;SDS011;64237;52.438;13.240;2023-05-29T14:21:23;5.32;;;1.80;;
75645;SDS011;64237;52.438;13.240;2023-05-29T14:23:48;5.03;;;1.75;;
75645;SDS011;64237;52.438;13.240;2023-05-29T14:26:14;5.35;;;1.92;;
75645;SDS011;64237;52.438;13.240;2023-05-29T14:28:39;6.17;;;1.77;;
75645;SDS011;64237;52.438;13.240;2023-05-29T14:31:05;4.43;;;1.50;;
75645;SDS011;64237;52.438;13.240;2023-05-29T14:33:30;4.65;;;1.80;;
75645;SDS011;64237;52.438;13.240;2023-05-29T14:35:56;8.30;;;1.75;;
75645;SDS011;64237;52.438;13.240;2023-05-29T14:38:21;3.60;;;1.80;;
75645;SDS011;64237;52.438;13.240;2023-05-29T14:40:47;4.75;;;1.77;;
75645;SDS011;64237;52.438;13.240;2023-05-29T14:43:12;5.70;;;1.80;;
75645;SDS011;64237;52.438;13.240;2023-05-29T14:45:38;7.10;;;1.75;;
75645;SDS011;64237;52.438;13.240;2023-05-29T14:48:04;5.45;;;1.42;;
75645;SDS011;64237;52.438;13.240;2023-05-29T14:50:29;5.97;;;1.70;;
75645;SDS011;64237;52.438;13.240;2023-05-29T14:52:55;4.00;;;1.30;;
75645;SDS011;64237;52.438;13.240;2023-05-29T14:55:20;5.17;;;1.60;;